sensor_id;sensor_type;location;lat;lon;timestamp;temperature;humidity
79140;HTU21D;68546;59.142;37.948;2024-02-26T00:00:01;4.21;71.51
79140;HTU21D;68546;59.142;37.948;2024-02-26T00:02:27;4.22;71.56
79140;HTU21D;68546;59.142;37.948;2024-02-26T00:04:54;4.21;71.65
79140;HTU21D;68546;59.142;37.948;2024-02-26T00:07:20;4.22;71.51
79140;HTU21D;68546;59.142;37.948;2024-02-26T00:09:46;4.24;71.49
79140;HTU21D;68546;59.142;37.948;2024-02-26T00:12:13;4.24;71.54
79140;HTU21D;68546;59.142;37.948;2024-02-26T00:14:39;4.26;71.48
79140;HTU21D;68546;59.142;37.948;2024-02-26T00:17:06;4.26;71.51
79140;HTU21D;68546;59.142;37.948;2024-02-26T00:19:35;4.27;71.33
79140;HTU21D;68546;59.142;37.948;2024-02-26T00:22:01;4.26;71.38
79140;HTU21D;68546;59.142;37.948;2024-02-26T00:24:27;4.24;71.22
79140;HTU21D;68546;59.142;37.948;2024-02-26T00:26:53;4.26;71.10
79140;HTU21D;68546;59.142;37.948;2024-02-26T00:29:20;4.24;70.98
79140;HTU21D;68546;59.142;37.948;2024-02-26T00:31:47;4.22;70.83
79140;HTU21D;68546;59.142;37.948;2024-02-26T00:34:14;4.20;70.61
79140;HTU21D;68546;59.142;37.948;2024-02-26T00:36:40;4.20;70.72
79140;HTU21D;68546;59.142;37.948;2024-02-26T00:39:06;4.18;70.61
79140;HTU21D;68546;59.142;37.948;2024-02-26T00:41:32;4.15;70.65
79140;HTU21D;68546;59.142;37.948;2024-02-26T00:43:58;4.15;70.45
79140;HTU21D;68546;59.142;37.948;2024-02-26T00:46:26;4.12;70.49
79140;HTU21D;68546;59.142;37.948;2024-02-26T00:48:52;4.10;70.52
79140;HTU21D;68546;59.142;37.948;2024-02-26T00:51:19;4.09;70.43
79140;HTU21D;68546;59.142;37.948;2024-02-26T00:53:45;4.08;70.42
79140;HTU21D;68546;59.142;37.948;2024-02-26T00:56:11;4.06;70.50
79140;HTU21D;68546;59.142;37.948;2024-02-26T00:58:37;4.06;70.40
79140;HTU21D;68546;59.142;37.948;2024-02-26T01:01:03;4.05;70.39
79140;HTU21D;68546;59.142;37.948;2024-02-26T01:03:30;4.04;70.43
79140;HTU21D;68546;59.142;37.948;2024-02-26T01:05:56;4.04;70.49
79140;HTU21D;68546;59.142;37.948;2024-02-26T01:08:22;4.02;70.16
79140;HTU21D;68546;59.142;37.948;2024-02-26T01:10:49;4.02;70.29
79140;HTU21D;68546;59.142;37.948;2024-02-26T01:13:15;4.02;70.33
79140;HTU21D;68546;59.142;37.948;2024-02-26T01:15:41;4.01;70.23
79140;HTU21D;68546;59.142;37.948;2024-02-26T01:18:09;4.00;70.19
79140;HTU21D;68546;59.142;37.948;2024-02-26T01:20:36;4.00;70.13
79140;HTU21D;68546;59.142;37.948;2024-02-26T01:23:02;4.00;70.07
79140;HTU21D;68546;59.142;37.948;2024-02-26T01:25:28;3.99;70.14
79140;HTU21D;68546;59.142;37.948;2024-02-26T01:27:55;3.98;70.12
79140;HTU21D;68546;59.142;37.948;2024-02-26T01:30:21;3.95;69.99
79140;HTU21D;68546;59.142;37.948;2024-02-26T01:32:47;3.94;69.93
79140;HTU21D;68546;59.142;37.948;2024-02-26T01:35:14;3.95;69.83
79140;HTU21D;68546;59.142;37.948;2024-02-26T01:37:40;3.94;69.87
79140;HTU21D;68546;59.142;37.948;2024-02-26T01:40:08;3.94;69.81
79140;HTU21D;68546;59.142;37.948;2024-02-26T01:42:38;3.93;69.74
79140;HTU21D;68546;59.142;37.948;2024-02-26T01:45:05;3.93;69.74
79140;HTU21D;68546;59.142;37.948;2024-02-26T01:47:33;3.92;69.75
79140;HTU21D;68546;59.142;37.948;2024-02-26T01:50:00;3.91;69.69
79140;HTU21D;68546;59.142;37.948;2024-02-26T01:52:26;3.91;69.68
79140;HTU21D;68546;59.142;37.948;2024-02-26T01:54:52;3.90;69.68
79140;HTU21D;68546;59.142;37.948;2024-02-26T01:57:19;3.90;69.62
79140;HTU21D;68546;59.142;37.948;2024-02-26T01:59:45;3.89;69.46
79140;HTU21D;68546;59.142;37.948;2024-02-26T02:02:11;3.88;69.48
79140;HTU21D;68546;59.142;37.948;2024-02-26T02:04:39;3.88;69.59
79140;HTU21D;68546;59.142;37.948;2024-02-26T02:07:05;3.87;69.36
79140;HTU21D;68546;59.142;37.948;2024-02-26T02:09:32;3.86;69.48
79140;HTU21D;68546;59.142;37.948;2024-02-26T02:11:59;3.87;69.61
79140;HTU21D;68546;59.142;37.948;2024-02-26T02:14:26;3.87;69.36
79140;HTU21D;68546;59.142;37.948;2024-02-26T02:16:52;3.88;69.23
79140;HTU21D;68546;59.142;37.948;2024-02-26T02:19:19;3.87;69.37
79140;HTU21D;68546;59.142;37.948;2024-02-26T02:21:45;3.87;69.27
79140;HTU21D;68546;59.142;37.948;2024-02-26T02:24:11;3.88;69.20
79140;HTU21D;68546;59.142;37.948;2024-02-26T02:26:38;3.86;69.32
79140;HTU21D;68546;59.142;37.948;2024-02-26T02:29:06;3.88;69.36
79140;HTU21D;68546;59.142;37.948;2024-02-26T02:31:33;3.88;69.22
79140;HTU21D;68546;59.142;37.948;2024-02-26T02:33:59;3.89;68.80
79140;HTU21D;68546;59.142;37.948;2024-02-26T02:36:26;3.88;68.78
79140;HTU21D;68546;59.142;37.948;2024-02-26T02:38:52;3.86;68.87
79140;HTU21D;68546;59.142;37.948;2024-02-26T02:41:19;3.84;68.80
79140;HTU21D;68546;59.142;37.948;2024-02-26T02:43:45;3.83;68.36
79140;HTU21D;68546;59.142;37.948;2024-02-26T02:46:11;3.79;68.42
79140;HTU21D;68546;59.142;37.948;2024-02-26T02:48:38;3.78;68.33
79140;HTU21D;68546;59.142;37.948;2024-02-26T02:51:05;3.75;68.33
79140;HTU21D;68546;59.142;37.948;2024-02-26T02:53:31;3.74;68.30
79140;HTU21D;68546;59.142;37.948;2024-02-26T02:55:57;3.70;68.23
79140;HTU21D;68546;59.142;37.948;2024-02-26T02:58:23;3.68;68.30
79140;HTU21D;68546;59.142;37.948;2024-02-26T03:00:50;3.67;68.33
79140;HTU21D;68546;59.142;37.948;2024-02-26T03:03:16;3.65;68.63
79140;HTU21D;68546;59.142;37.948;2024-02-26T03:05:42;3.65;68.84
79140;HTU21D;68546;59.142;37.948;2024-02-26T03:08:09;3.64;68.87
79140;HTU21D;68546;59.142;37.948;2024-02-26T03:10:35;3.64;68.71
79140;HTU21D;68546;59.142;37.948;2024-02-26T03:13:02;3.64;68.79
79140;HTU21D;68546;59.142;37.948;2024-02-26T03:15:28;3.65;68.84
79140;HTU21D;68546;59.142;37.948;2024-02-26T03:17:54;3.63;68.75
79140;HTU21D;68546;59.142;37.948;2024-02-26T03:20:21;3.62;68.68
79140;HTU21D;68546;59.142;37.948;2024-02-26T03:22:47;3.61;68.58
79140;HTU21D;68546;59.142;37.948;2024-02-26T03:25:13;3.60;68.48
79140;HTU21D;68546;59.142;37.948;2024-02-26T03:27:39;3.58;68.62
79140;HTU21D;68546;59.142;37.948;2024-02-26T03:30:06;3.56;68.56
79140;HTU21D;68546;59.142;37.948;2024-02-26T03:32:32;3.54;68.58
79140;HTU21D;68546;59.142;37.948;2024-02-26T03:34:59;3.53;68.56
79140;HTU21D;68546;59.142;37.948;2024-02-26T03:37:25;3.50;68.62
79140;HTU21D;68546;59.142;37.948;2024-02-26T03:39:52;3.48;68.63
79140;HTU21D;68546;59.142;37.948;2024-02-26T03:42:18;3.46;68.68
79140;HTU21D;68546;59.142;37.948;2024-02-26T03:44:45;3.46;68.90
79140;HTU21D;68546;59.142;37.948;2024-02-26T03:47:11;3.45;68.85
79140;HTU21D;68546;59.142;37.948;2024-02-26T03:49:38;3.44;68.84
79140;HTU21D;68546;59.142;37.948;2024-02-26T03:52:04;3.45;68.97
79140;HTU21D;68546;59.142;37.948;2024-02-26T03:54:31;3.45;69.04
79140;HTU21D;68546;59.142;37.948;2024-02-26T03:56:57;3.44;69.12
79140;HTU21D;68546;59.142;37.948;2024-02-26T03:59:23;3.43;69.15
79140;HTU21D;68546;59.142;37.948;2024-02-26T04:01:51;3.44;69.20
79140;HTU21D;68546;59.142;37.948;2024-02-26T04:04:17;3.43;69.30
79140;HTU21D;68546;59.142;37.948;2024-02-26T04:06:46;3.43;69.26
79140;HTU21D;68546;59.142;37.948;2024-02-26T04:09:16;3.43;69.18
79140;HTU21D;68546;59.142;37.948;2024-02-26T04:11:42;3.40;69.22
79140;HTU21D;68546;59.142;37.948;2024-02-26T04:14:11;3.38;69.07
79140;HTU21D;68546;59.142;37.948;2024-02-26T04:16:38;3.35;69.10
79140;HTU21D;68546;59.142;37.948;2024-02-26T04:19:05;3.33;69.29
79140;HTU21D;68546;59.142;37.948;2024-02-26T04:21:31;3.32;69.18
79140;HTU21D;68546;59.142;37.948;2024-02-26T04:23:57;3.30;69.30
79140;HTU21D;68546;59.142;37.948;2024-02-26T04:26:27;3.29;69.45
79140;HTU21D;68546;59.142;37.948;2024-02-26T04:28:53;3.27;69.26
79140;HTU21D;68546;59.142;37.948;2024-02-26T04:31:20;3.26;69.12
79140;HTU21D;68546;59.142;37.948;2024-02-26T04:33:46;3.24;69.26
79140;HTU21D;68546;59.142;37.948;2024-02-26T04:36:15;3.20;69.42
79140;HTU21D;68546;59.142;37.948;2024-02-26T04:38:45;3.19;69.52
79140;HTU21D;68546;59.142;37.948;2024-02-26T04:41:12;3.17;69.39
79140;HTU21D;68546;59.142;37.948;2024-02-26T04:43:39;3.15;69.61
79140;HTU21D;68546;59.142;37.948;2024-02-26T04:46:08;3.15;69.85
79140;HTU21D;68546;59.142;37.948;2024-02-26T04:48:35;3.16;69.88
79140;HTU21D;68546;59.142;37.948;2024-02-26T04:51:02;3.14;69.93
79140;HTU21D;68546;59.142;37.948;2024-02-26T04:53:29;3.15;69.97
79140;HTU21D;68546;59.142;37.948;2024-02-26T04:55:55;3.14;69.90
79140;HTU21D;68546;59.142;37.948;2024-02-26T04:58:21;3.15;70.07
79140;HTU21D;68546;59.142;37.948;2024-02-26T05:00:48;3.15;70.29
79140;HTU21D;68546;59.142;37.948;2024-02-26T05:03:14;3.16;70.42
79140;HTU21D;68546;59.142;37.948;2024-02-26T05:05:44;3.18;70.18
79140;HTU21D;68546;59.142;37.948;2024-02-26T05:08:11;3.18;70.14
79140;HTU21D;68546;59.142;37.948;2024-02-26T05:10:38;3.19;70.09
79140;HTU21D;68546;59.142;37.948;2024-02-26T05:13:07;3.18;70.29
79140;HTU21D;68546;59.142;37.948;2024-02-26T05:15:33;3.21;70.45
79140;HTU21D;68546;59.142;37.948;2024-02-26T05:17:59;3.23;70.41
79140;HTU21D;68546;59.142;37.948;2024-02-26T05:20:26;3.23;70.57
79140;HTU21D;68546;59.142;37.948;2024-02-26T05:22:52;3.25;70.58
79140;HTU21D;68546;59.142;37.948;2024-02-26T05:25:18;3.27;70.70
79140;HTU21D;68546;59.142;37.948;2024-02-26T05:27:45;3.27;70.74
79140;HTU21D;68546;59.142;37.948;2024-02-26T05:30:11;3.30;70.71
79140;HTU21D;68546;59.142;37.948;2024-02-26T05:32:38;3.32;70.77
79140;HTU21D;68546;59.142;37.948;2024-02-26T05:35:04;3.33;70.81
79140;HTU21D;68546;59.142;37.948;2024-02-26T05:37:31;3.35;70.86
79140;HTU21D;68546;59.142;37.948;2024-02-26T05:39:57;3.35;70.87
79140;HTU21D;68546;59.142;37.948;2024-02-26T05:42:24;3.36;70.89
79140;HTU21D;68546;59.142;37.948;2024-02-26T05:44:50;3.39;70.81
79140;HTU21D;68546;59.142;37.948;2024-02-26T05:47:16;3.40;70.80
79140;HTU21D;68546;59.142;37.948;2024-02-26T05:49:44;3.40;70.93
79140;HTU21D;68546;59.142;37.948;2024-02-26T05:52:11;3.43;71.08
79140;HTU21D;68546;59.142;37.948;2024-02-26T05:54:37;3.45;71.02
79140;HTU21D;68546;59.142;37.948;2024-02-26T05:57:03;3.45;71.10
79140;HTU21D;68546;59.142;37.948;2024-02-26T05:59:30;3.47;71.03
79140;HTU21D;68546;59.142;37.948;2024-02-26T06:01:56;3.47;71.00
79140;HTU21D;68546;59.142;37.948;2024-02-26T06:04:22;3.49;70.93
79140;HTU21D;68546;59.142;37.948;2024-02-26T06:06:48;3.50;70.93
79140;HTU21D;68546;59.142;37.948;2024-02-26T06:09:15;3.52;71.03
79140;HTU21D;68546;59.142;37.948;2024-02-26T06:11:41;3.55;71.01
79140;HTU21D;68546;59.142;37.948;2024-02-26T06:14:07;3.56;70.94
79140;HTU21D;68546;59.142;37.948;2024-02-26T06:16:34;3.58;70.85
79140;HTU21D;68546;59.142;37.948;2024-02-26T06:19:01;3.58;70.64
79140;HTU21D;68546;59.142;37.948;2024-02-26T06:21:27;3.58;70.76
79140;HTU21D;68546;59.142;37.948;2024-02-26T06:23:54;3.59;70.74
79140;HTU21D;68546;59.142;37.948;2024-02-26T06:26:20;3.60;70.81
79140;HTU21D;68546;59.142;37.948;2024-02-26T06:28:47;3.63;70.83
79140;HTU21D;68546;59.142;37.948;2024-02-26T06:31:13;3.65;70.79
79140;HTU21D;68546;59.142;37.948;2024-02-26T06:33:39;3.65;70.63
79140;HTU21D;68546;59.142;37.948;2024-02-26T06:36:05;3.67;70.60
79140;HTU21D;68546;59.142;37.948;2024-02-26T06:38:32;3.65;70.56
79140;HTU21D;68546;59.142;37.948;2024-02-26T06:40:58;3.67;70.50
79140;HTU21D;68546;59.142;37.948;2024-02-26T06:43:24;3.69;70.57
79140;HTU21D;68546;59.142;37.948;2024-02-26T06:45:51;3.71;70.67
79140;HTU21D;68546;59.142;37.948;2024-02-26T06:48:17;3.72;70.44
79140;HTU21D;68546;59.142;37.948;2024-02-26T06:50:44;3.73;70.36
79140;HTU21D;68546;59.142;37.948;2024-02-26T06:53:10;3.73;70.32
79140;HTU21D;68546;59.142;37.948;2024-02-26T06:55:36;3.74;70.18
79140;HTU21D;68546;59.142;37.948;2024-02-26T06:58:06;3.74;70.16
79140;HTU21D;68546;59.142;37.948;2024-02-26T07:00:32;3.75;70.17
79140;HTU21D;68546;59.142;37.948;2024-02-26T07:02:58;3.75;70.21
79140;HTU21D;68546;59.142;37.948;2024-02-26T07:05:25;3.77;70.04
79140;HTU21D;68546;59.142;37.948;2024-02-26T07:07:51;3.75;69.66
79140;HTU21D;68546;59.142;37.948;2024-02-26T07:10:17;3.75;69.81
79140;HTU21D;68546;59.142;37.948;2024-02-26T07:12:44;3.76;69.81
79140;HTU21D;68546;59.142;37.948;2024-02-26T07:15:10;3.74;69.61
79140;HTU21D;68546;59.142;37.948;2024-02-26T07:17:37;3.75;69.58
79140;HTU21D;68546;59.142;37.948;2024-02-26T07:20:03;3.74;69.52
79140;HTU21D;68546;59.142;37.948;2024-02-26T07:22:33;3.75;69.74
79140;HTU21D;68546;59.142;37.948;2024-02-26T07:24:59;3.77;69.90
79140;HTU21D;68546;59.142;37.948;2024-02-26T07:27:25;3.78;69.79
79140;HTU21D;68546;59.142;37.948;2024-02-26T07:29:52;3.79;69.43
79140;HTU21D;68546;59.142;37.948;2024-02-26T07:32:18;3.79;69.32
79140;HTU21D;68546;59.142;37.948;2024-02-26T07:34:44;3.80;69.26
79140;HTU21D;68546;59.142;37.948;2024-02-26T07:37:11;3.82;69.17
79140;HTU21D;68546;59.142;37.948;2024-02-26T07:39:38;3.83;69.13
79140;HTU21D;68546;59.142;37.948;2024-02-26T07:42:04;3.85;68.99
79140;HTU21D;68546;59.142;37.948;2024-02-26T07:44:31;3.85;68.97
79140;HTU21D;68546;59.142;37.948;2024-02-26T07:46:57;3.85;69.02
79140;HTU21D;68546;59.142;37.948;2024-02-26T07:49:23;3.86;68.97
79140;HTU21D;68546;59.142;37.948;2024-02-26T07:51:50;3.86;68.96
79140;HTU21D;68546;59.142;37.948;2024-02-26T07:54:16;3.87;68.87
79140;HTU21D;68546;59.142;37.948;2024-02-26T07:56:42;3.88;68.53
79140;HTU21D;68546;59.142;37.948;2024-02-26T07:59:09;3.86;68.62
79140;HTU21D;68546;59.142;37.948;2024-02-26T08:01:35;3.86;68.65
79140;HTU21D;68546;59.142;37.948;2024-02-26T08:04:05;3.86;68.79
79140;HTU21D;68546;59.142;37.948;2024-02-26T08:06:31;3.86;68.80
79140;HTU21D;68546;59.142;37.948;2024-02-26T08:08:57;3.88;68.51
79140;HTU21D;68546;59.142;37.948;2024-02-26T08:11:23;3.88;68.67
79140;HTU21D;68546;59.142;37.948;2024-02-26T08:13:50;3.90;68.40
79140;HTU21D;68546;59.142;37.948;2024-02-26T08:16:16;3.87;68.10
79140;HTU21D;68546;59.142;37.948;2024-02-26T08:18:43;3.89;68.07
79140;HTU21D;68546;59.142;37.948;2024-02-26T08:21:09;3.88;68.13
79140;HTU21D;68546;59.142;37.948;2024-02-26T08:23:35;3.89;67.81
79140;HTU21D;68546;59.142;37.948;2024-02-26T08:26:01;3.89;67.86
79140;HTU21D;68546;59.142;37.948;2024-02-26T08:28:30;3.90;67.65
79140;HTU21D;68546;59.142;37.948;2024-02-26T08:30:56;3.90;67.37
79140;HTU21D;68546;59.142;37.948;2024-02-26T08:33:22;3.89;67.15
79140;HTU21D;68546;59.142;37.948;2024-02-26T08:35:49;3.90;67.32
79140;HTU21D;68546;59.142;37.948;2024-02-26T08:38:15;3.91;67.27
79140;HTU21D;68546;59.142;37.948;2024-02-26T08:40:41;3.91;67.19
79140;HTU21D;68546;59.142;37.948;2024-02-26T08:43:07;3.93;67.16
79140;HTU21D;68546;59.142;37.948;2024-02-26T08:45:35;3.93;67.20
79140;HTU21D;68546;59.142;37.948;2024-02-26T08:48:01;3.95;67.30
79140;HTU21D;68546;59.142;37.948;2024-02-26T08:50:28;3.97;67.49
79140;HTU21D;68546;59.142;37.948;2024-02-26T08:52:54;3.98;67.26
79140;HTU21D;68546;59.142;37.948;2024-02-26T08:55:20;3.99;67.18
79140;HTU21D;68546;59.142;37.948;2024-02-26T08:57:47;4.01;67.27
79140;HTU21D;68546;59.142;37.948;2024-02-26T09:00:14;4.03;67.33
79140;HTU21D;68546;59.142;37.948;2024-02-26T09:02:47;4.05;67.15
79140;HTU21D;68546;59.142;37.948;2024-02-26T09:05:14;4.05;67.14
79140;HTU21D;68546;59.142;37.948;2024-02-26T09:07:41;4.07;67.18
79140;HTU21D;68546;59.142;37.948;2024-02-26T09:10:07;4.08;67.10
79140;HTU21D;68546;59.142;37.948;2024-02-26T09:12:37;4.12;67.16
79140;HTU21D;68546;59.142;37.948;2024-02-26T09:15:06;4.14;67.01
79140;HTU21D;68546;59.142;37.948;2024-02-26T09:17:33;4.14;66.77
79140;HTU21D;68546;59.142;37.948;2024-02-26T09:19:59;4.14;66.98
79140;HTU21D;68546;59.142;37.948;2024-02-26T09:22:26;4.15;66.84
79140;HTU21D;68546;59.142;37.948;2024-02-26T09:24:52;4.17;66.79
79140;HTU21D;68546;59.142;37.948;2024-02-26T09:27:19;4.18;66.81
79140;HTU21D;68546;59.142;37.948;2024-02-26T09:29:45;4.16;66.17
79140;HTU21D;68546;59.142;37.948;2024-02-26T09:32:12;4.15;66.21
79140;HTU21D;68546;59.142;37.948;2024-02-26T09:34:40;4.15;66.28
79140;HTU21D;68546;59.142;37.948;2024-02-26T09:37:07;4.15;66.39
79140;HTU21D;68546;59.142;37.948;2024-02-26T09:39:33;4.15;66.31
79140;HTU21D;68546;59.142;37.948;2024-02-26T09:42:04;4.16;66.21
79140;HTU21D;68546;59.142;37.948;2024-02-26T09:44:31;4.17;66.14
79140;HTU21D;68546;59.142;37.948;2024-02-26T09:47:01;4.17;65.95
79140;HTU21D;68546;59.142;37.948;2024-02-26T09:49:29;4.16;65.84
79140;HTU21D;68546;59.142;37.948;2024-02-26T09:51:56;4.16;66.01
79140;HTU21D;68546;59.142;37.948;2024-02-26T09:54:24;4.18;65.62
79140;HTU21D;68546;59.142;37.948;2024-02-26T09:56:53;4.19;65.85
79140;HTU21D;68546;59.142;37.948;2024-02-26T09:59:24;4.19;65.51
79140;HTU21D;68546;59.142;37.948;2024-02-26T10:01:50;4.19;64.89
79140;HTU21D;68546;59.142;37.948;2024-02-26T10:04:18;4.16;64.76
79140;HTU21D;68546;59.142;37.948;2024-02-26T10:06:45;4.14;65.00
79140;HTU21D;68546;59.142;37.948;2024-02-26T10:09:12;4.15;65.26
79140;HTU21D;68546;59.142;37.948;2024-02-26T10:11:42;4.16;65.41
79140;HTU21D;68546;59.142;37.948;2024-02-26T10:14:09;4.18;65.40
79140;HTU21D;68546;59.142;37.948;2024-02-26T10:16:36;4.20;65.54
79140;HTU21D;68546;59.142;37.948;2024-02-26T10:19:03;4.20;65.01
79140;HTU21D;68546;59.142;37.948;2024-02-26T10:21:29;4.21;65.01
79140;HTU21D;68546;59.142;37.948;2024-02-26T10:23:55;4.22;65.05
79140;HTU21D;68546;59.142;37.948;2024-02-26T10:26:21;4.22;65.30
79140;HTU21D;68546;59.142;37.948;2024-02-26T10:28:48;4.28;65.61
79140;HTU21D;68546;59.142;37.948;2024-02-26T10:31:15;4.30;65.54
79140;HTU21D;68546;59.142;37.948;2024-02-26T10:33:43;4.34;65.78
79140;HTU21D;68546;59.142;37.948;2024-02-26T10:36:09;4.37;65.53
79140;HTU21D;68546;59.142;37.948;2024-02-26T10:38:37;4.39;65.40
79140;HTU21D;68546;59.142;37.948;2024-02-26T10:41:04;4.42;65.45
79140;HTU21D;68546;59.142;37.948;2024-02-26T10:43:30;4.44;64.67
79140;HTU21D;68546;59.142;37.948;2024-02-26T10:45:57;4.42;64.56
79140;HTU21D;68546;59.142;37.948;2024-02-26T10:48:24;4.39;64.59
79140;HTU21D;68546;59.142;37.948;2024-02-26T10:50:50;4.41;64.29
79140;HTU21D;68546;59.142;37.948;2024-02-26T10:53:19;4.38;64.57
79140;HTU21D;68546;59.142;37.948;2024-02-26T10:55:50;4.38;64.59
79140;HTU21D;68546;59.142;37.948;2024-02-26T10:58:18;4.41;64.65
79140;HTU21D;68546;59.142;37.948;2024-02-26T11:00:46;4.41;63.73
79140;HTU21D;68546;59.142;37.948;2024-02-26T11:03:14;4.38;63.87
79140;HTU21D;68546;59.142;37.948;2024-02-26T11:05:44;4.36;64.12
79140;HTU21D;68546;59.142;37.948;2024-02-26T11:08:11;4.35;64.33
79140;HTU21D;68546;59.142;37.948;2024-02-26T11:10:38;4.35;64.05
79140;HTU21D;68546;59.142;37.948;2024-02-26T11:13:06;4.33;64.04
79140;HTU21D;68546;59.142;37.948;2024-02-26T11:15:36;4.33;64.09
79140;HTU21D;68546;59.142;37.948;2024-02-26T11:18:03;4.33;64.07
79140;HTU21D;68546;59.142;37.948;2024-02-26T11:20:32;4.33;63.84
79140;HTU21D;68546;59.142;37.948;2024-02-26T11:22:59;4.33;64.18
79140;HTU21D;68546;59.142;37.948;2024-02-26T11:25:25;4.34;64.11
79140;HTU21D;68546;59.142;37.948;2024-02-26T11:27:55;4.35;64.18
79140;HTU21D;68546;59.142;37.948;2024-02-26T11:30:26;4.36;64.08
79140;HTU21D;68546;59.142;37.948;2024-02-26T11:32:55;4.39;64.27
79140;HTU21D;68546;59.142;37.948;2024-02-26T11:35:22;4.41;64.20
79140;HTU21D;68546;59.142;37.948;2024-02-26T11:37:56;4.43;64.33
79140;HTU21D;68546;59.142;37.948;2024-02-26T11:40:24;4.44;64.26
79140;HTU21D;68546;59.142;37.948;2024-02-26T11:42:51;4.46;64.37
79140;HTU21D;68546;59.142;37.948;2024-02-26T11:48:23;4.52;64.14
79140;HTU21D;68546;59.142;37.948;2024-02-26T11:50:51;4.56;64.00
79140;HTU21D;68546;59.142;37.948;2024-02-26T11:53:22;4.53;63.58
79140;HTU21D;68546;59.142;37.948;2024-02-26T11:58:41;4.48;63.44
79140;HTU21D;68546;59.142;37.948;2024-02-26T12:01:36;4.48;63.88
79140;HTU21D;68546;59.142;37.948;2024-02-26T12:04:24;4.47;64.04
79140;HTU21D;68546;59.142;37.948;2024-02-26T12:07:00;4.48;64.12
79140;HTU21D;68546;59.142;37.948;2024-02-26T12:09:45;4.49;63.98
79140;HTU21D;68546;59.142;37.948;2024-02-26T12:12:17;4.49;63.67
79140;HTU21D;68546;59.142;37.948;2024-02-26T12:14:52;4.46;63.68
79140;HTU21D;68546;59.142;37.948;2024-02-26T12:17:24;4.44;63.69
79140;HTU21D;68546;59.142;37.948;2024-02-26T12:19:50;4.39;63.61
79140;HTU21D;68546;59.142;37.948;2024-02-26T12:22:19;4.38;63.60
79140;HTU21D;68546;59.142;37.948;2024-02-26T12:24:45;4.34;63.52
79140;HTU21D;68546;59.142;37.948;2024-02-26T12:27:12;4.33;63.63
79140;HTU21D;68546;59.142;37.948;2024-02-26T12:29:39;4.33;63.63
79140;HTU21D;68546;59.142;37.948;2024-02-26T12:32:05;4.29;63.35
79140;HTU21D;68546;59.142;37.948;2024-02-26T12:34:32;4.27;63.56
79140;HTU21D;68546;59.142;37.948;2024-02-26T12:36:59;4.23;63.74
79140;HTU21D;68546;59.142;37.948;2024-02-26T12:39:25;4.21;63.76
79140;HTU21D;68546;59.142;37.948;2024-02-26T12:41:52;4.20;63.89
79140;HTU21D;68546;59.142;37.948;2024-02-26T12:44:24;4.20;64.05
79140;HTU21D;68546;59.142;37.948;2024-02-26T12:46:51;4.20;64.03
79140;HTU21D;68546;59.142;37.948;2024-02-26T12:49:17;4.19;63.82
79140;HTU21D;68546;59.142;37.948;2024-02-26T12:51:44;4.16;63.76
79140;HTU21D;68546;59.142;37.948;2024-02-26T12:54:12;4.13;63.80
79140;HTU21D;68546;59.142;37.948;2024-02-26T12:56:39;4.13;63.85
79140;HTU21D;68546;59.142;37.948;2024-02-26T12:59:05;4.10;63.96
79140;HTU21D;68546;59.142;37.948;2024-02-26T13:01:32;4.08;63.92
79140;HTU21D;68546;59.142;37.948;2024-02-26T13:03:59;4.06;64.04
79140;HTU21D;68546;59.142;37.948;2024-02-26T13:06:26;4.06;64.10
79140;HTU21D;68546;59.142;37.948;2024-02-26T13:08:56;4.06;64.15
79140;HTU21D;68546;59.142;37.948;2024-02-26T13:11:24;4.04;64.10
79140;HTU21D;68546;59.142;37.948;2024-02-26T13:13:51;4.03;63.92
79140;HTU21D;68546;59.142;37.948;2024-02-26T13:16:17;4.01;63.98
79140;HTU21D;68546;59.142;37.948;2024-02-26T13:18:43;3.98;63.91
79140;HTU21D;68546;59.142;37.948;2024-02-26T13:21:11;3.97;63.96
79140;HTU21D;68546;59.142;37.948;2024-02-26T13:23:39;3.94;63.89
79140;HTU21D;68546;59.142;37.948;2024-02-26T13:26:06;3.91;63.95
79140;HTU21D;68546;59.142;37.948;2024-02-26T13:28:34;3.88;64.02
79140;HTU21D;68546;59.142;37.948;2024-02-26T13:31:00;3.86;64.01
79140;HTU21D;68546;59.142;37.948;2024-02-26T13:33:28;3.84;64.13
79140;HTU21D;68546;59.142;37.948;2024-02-26T13:35:56;3.83;64.28
79140;HTU21D;68546;59.142;37.948;2024-02-26T13:38:22;3.82;64.29
79140;HTU21D;68546;59.142;37.948;2024-02-26T13:40:52;3.79;64.37
79140;HTU21D;68546;59.142;37.948;2024-02-26T13:43:19;3.78;64.49
79140;HTU21D;68546;59.142;37.948;2024-02-26T13:45:46;3.78;64.36
79140;HTU21D;68546;59.142;37.948;2024-02-26T13:48:13;3.78;64.48
79140;HTU21D;68546;59.142;37.948;2024-02-26T13:50:41;3.77;64.58
79140;HTU21D;68546;59.142;37.948;2024-02-26T13:53:09;3.77;64.56
79140;HTU21D;68546;59.142;37.948;2024-02-26T13:55:35;3.76;64.59
79140;HTU21D;68546;59.142;37.948;2024-02-26T13:58:02;3.76;64.65
79140;HTU21D;68546;59.142;37.948;2024-02-26T14:00:29;3.75;64.69
79140;HTU21D;68546;59.142;37.948;2024-02-26T14:02:58;3.76;64.70
79140;HTU21D;68546;59.142;37.948;2024-02-26T14:05:24;3.75;64.67
79140;HTU21D;68546;59.142;37.948;2024-02-26T14:07:51;3.74;64.59
79140;HTU21D;68546;59.142;37.948;2024-02-26T14:10:18;3.73;64.43
79140;HTU21D;68546;59.142;37.948;2024-02-26T14:12:44;3.71;64.35
79140;HTU21D;68546;59.142;37.948;2024-02-26T14:15:11;3.71;64.34
79140;HTU21D;68546;59.142;37.948;2024-02-26T14:17:37;3.67;64.42
79140;HTU21D;68546;59.142;37.948;2024-02-26T14:20:03;3.67;64.45
79140;HTU21D;68546;59.142;37.948;2024-02-26T14:22:30;3.64;64.50
79140;HTU21D;68546;59.142;37.948;2024-02-26T14:24:57;3.64;64.59
79140;HTU21D;68546;59.142;37.948;2024-02-26T14:27:23;3.63;64.81
79140;HTU21D;68546;59.142;37.948;2024-02-26T14:29:50;3.64;64.90
79140;HTU21D;68546;59.142;37.948;2024-02-26T14:32:16;3.64;64.85
79140;HTU21D;68546;59.142;37.948;2024-02-26T14:34:43;3.64;64.70
79140;HTU21D;68546;59.142;37.948;2024-02-26T14:37:11;3.62;64.63
79140;HTU21D;68546;59.142;37.948;2024-02-26T14:39:37;3.62;64.70
79140;HTU21D;68546;59.142;37.948;2024-02-26T14:42:04;3.62;64.70
79140;HTU21D;68546;59.142;37.948;2024-02-26T14:44:31;3.61;64.67
79140;HTU21D;68546;59.142;37.948;2024-02-26T14:46:58;3.61;64.66
79140;HTU21D;68546;59.142;37.948;2024-02-26T14:49:24;3.60;64.63
79140;HTU21D;68546;59.142;37.948;2024-02-26T14:51:51;3.59;64.69
79140;HTU21D;68546;59.142;37.948;2024-02-26T14:54:18;3.58;64.69
79140;HTU21D;68546;59.142;37.948;2024-02-26T14:56:45;3.58;64.81
79140;HTU21D;68546;59.142;37.948;2024-02-26T14:59:12;3.58;64.85
79140;HTU21D;68546;59.142;37.948;2024-02-26T15:01:38;3.59;64.92
79140;HTU21D;68546;59.142;37.948;2024-02-26T15:04:04;3.59;64.84
79140;HTU21D;68546;59.142;37.948;2024-02-26T15:06:30;3.58;64.79
79140;HTU21D;68546;59.142;37.948;2024-02-26T15:08:57;3.57;64.72
79140;HTU21D;68546;59.142;37.948;2024-02-26T15:11:23;3.58;64.79
79140;HTU21D;68546;59.142;37.948;2024-02-26T15:13:49;3.57;64.68
79140;HTU21D;68546;59.142;37.948;2024-02-26T15:16:19;3.56;64.73
79140;HTU21D;68546;59.142;37.948;2024-02-26T15:18:47;3.56;64.96